createdAt,value
2022-12-23T00:04:54.046Z,10.8
2022-12-23T00:09:54.561Z,11.2
2022-12-23T00:14:54.155Z,11.2
2022-12-23T00:19:54.017Z,11.2
2022-12-23T00:24:54.081Z,10.8
2022-12-23T00:29:54.179Z,10.8
2022-12-23T00:40:06.057Z,10.8
2022-12-23T00:44:54.714Z,10.8
2022-12-23T00:49:54.005Z,10.8
2022-12-23T00:54:53.935Z,10.6
2022-12-23T00:59:53.942Z,10.8
2022-12-23T01:04:53.954Z,10.6
2022-12-23T01:09:54.235Z,10.6
2022-12-23T01:14:53.949Z,10.4
2022-12-23T01:20:11.979Z,10.4
2022-12-23T01:24:54.194Z,10.4
2022-12-23T01:29:53.965Z,10.4
2022-12-23T01:34:54.075Z,10.4
2022-12-23T01:39:54.056Z,10.4
2022-12-23T01:44:53.908Z,10.4
2022-12-23T01:49:53.864Z,10.4
2022-12-23T01:55:01.163Z,10.2
2022-12-23T01:59:55.411Z,10.2
2022-12-23T02:09:54.432Z,10.4
2022-12-23T02:14:54.073Z,10.6
2022-12-23T02:19:53.890Z,10.7
2022-12-23T02:24:53.866Z,10.7
2022-12-23T02:29:53.881Z,10.9
2022-12-23T02:34:53.847Z,10.9
2022-12-23T02:39:53.965Z,10.9
2022-12-23T02:44:53.884Z,10.6
2022-12-23T02:49:54.905Z,10.6
2022-12-23T02:54:54.008Z,10.6
2022-12-23T02:59:56.351Z,10.6
2022-12-23T03:04:53.887Z,10.6
2022-12-23T03:09:54.938Z,10.5
2022-12-23T03:14:53.879Z,10.6
2022-12-23T03:19:53.947Z,10.6
2022-12-23T03:24:53.898Z,10.6
2022-12-23T03:29:54.021Z,10.6
2022-12-23T03:34:54.690Z,10.7
2022-12-23T03:39:53.870Z,10.7
2022-12-23T03:45:28.265Z,10.7
2022-12-23T03:49:54.140Z,10.7
2022-12-23T03:54:53.915Z,10.7
2022-12-23T03:59:53.997Z,10.9
2022-12-23T04:04:53.904Z,11
2022-12-23T04:09:53.893Z,11
2022-12-23T04:14:53.968Z,11.1
2022-12-23T04:19:53.896Z,11.2
2022-12-23T04:24:53.893Z,11.2
2022-12-23T04:29:53.948Z,11.2
2022-12-23T04:34:54.001Z,11.1
2022-12-23T04:39:53.908Z,11.1
2022-12-23T04:44:53.898Z,11.1
2022-12-23T04:49:55.132Z,11.1
2022-12-23T04:54:54.010Z,11.1
2022-12-23T04:59:53.935Z,11.1
2022-12-23T05:04:54.091Z,11.1
2022-12-23T05:09:54.101Z,11.1
2022-12-23T05:14:54.642Z,10.9
2022-12-23T05:19:53.978Z,10.9
2022-12-23T05:24:54.574Z,10.9
2022-12-23T05:29:53.943Z,10.9
2022-12-23T05:34:53.996Z,10.9
2022-12-23T05:39:53.993Z,10.9
2022-12-23T05:44:54.037Z,11.4
2022-12-23T05:49:54.085Z,11.5
2022-12-23T05:54:54.010Z,11.7
2022-12-23T05:59:54.539Z,11.7
2022-12-23T06:04:53.951Z,11.9
2022-12-23T06:09:54.151Z,12.1
2022-12-23T06:14:53.973Z,12.1
2022-12-23T06:19:54.072Z,11.9
2022-12-23T06:24:53.953Z,11.9
2022-12-23T06:29:53.978Z,12.1
2022-12-23T06:34:54.052Z,11.9
2022-12-23T06:39:54.094Z,11.9
2022-12-23T06:44:53.926Z,11.4
2022-12-23T06:49:54.287Z,11.4
2022-12-23T06:54:54.755Z,11.9
2022-12-23T06:59:54.993Z,11.1
2022-12-23T07:04:54.096Z,10.5
2022-12-23T07:09:54.339Z,10
2022-12-23T07:14:53.962Z,10
2022-12-23T07:19:53.986Z,9.6
2022-12-23T07:24:53.988Z,9.3
2022-12-23T07:29:54.004Z,9.1
2022-12-23T07:34:54.146Z,9.1
2022-12-23T07:39:54.166Z,9.1
2022-12-23T07:44:54.978Z,9
2022-12-23T07:49:54.060Z,9
2022-12-23T07:54:54.152Z,9
2022-12-23T07:59:54.090Z,9
2022-12-23T08:04:54.071Z,9.3
2022-12-23T08:09:54.108Z,9.6
2022-12-23T08:14:54.021Z,9.8
2022-12-23T08:19:53.990Z,10.2
2022-12-23T08:24:53.988Z,10.2
2022-12-23T08:29:55.023Z,10.2
2022-12-23T08:34:54.023Z,10.9
2022-12-23T08:39:55.153Z,11.7
2022-12-23T08:44:54.233Z,11.9
2022-12-23T08:49:55.513Z,12.2
2022-12-23T08:54:54.183Z,12.4
2022-12-23T08:59:53.985Z,12.4
2022-12-23T09:04:54.034Z,12.2
2022-12-23T09:09:54.166Z,11.9
2022-12-23T09:14:54.013Z,11.9
2022-12-23T09:19:54.999Z,11.1
2022-12-23T09:24:57.567Z,11
2022-12-23T09:29:54.022Z,11
2022-12-23T09:34:54.423Z,11
2022-12-23T09:39:54.147Z,11
2022-12-23T09:44:54.086Z,11
2022-12-23T09:49:54.325Z,11
2022-12-23T09:54:54.243Z,11.4
2022-12-23T09:59:54.013Z,11.4
2022-12-23T10:04:54.092Z,11.5
2022-12-23T10:09:54.242Z,11.7
2022-12-23T10:14:54.040Z,11.9
2022-12-23T10:19:54.035Z,11.9
2022-12-23T10:24:54.045Z,11.9
2022-12-23T10:29:54.050Z,11.9
2022-12-23T10:34:54.117Z,11.7
2022-12-23T10:39:54.205Z,11.4
2022-12-23T10:44:56.565Z,11.3
2022-12-23T10:49:54.327Z,11.2
2022-12-23T10:54:54.783Z,11.2
2022-12-23T10:59:55.392Z,11.2
2022-12-23T11:04:54.497Z,11.3
2022-12-23T11:09:54.424Z,11.4
2022-12-23T11:14:54.025Z,11.4
2022-12-23T11:19:54.284Z,11.4
2022-12-23T11:24:54.058Z,12.9
2022-12-23T11:29:54.044Z,13.6
2022-12-23T11:34:56.195Z,12.9
2022-12-23T11:39:54.269Z,11.1
2022-12-23T11:44:54.042Z,11
2022-12-23T11:49:54.299Z,10.4
2022-12-23T11:54:57.121Z,10.4
2022-12-23T11:59:55.485Z,10.2
2022-12-23T12:04:54.094Z,10
2022-12-23T12:09:54.435Z,10
2022-12-23T12:14:54.082Z,10
2022-12-23T12:19:54.112Z,10
2022-12-23T12:24:54.355Z,10.1
2022-12-23T12:29:54.176Z,10.1
2022-12-23T12:34:54.224Z,10.9
2022-12-23T12:40:01.676Z,11.7
2022-12-23T12:44:54.120Z,13.8
2022-12-23T12:49:55.509Z,13.8
2022-12-23T12:54:54.423Z,18
2022-12-23T12:59:56.433Z,18
2022-12-23T13:04:54.152Z,13.8
2022-12-23T13:09:54.271Z,13.6
2022-12-23T13:14:54.190Z,13
2022-12-23T13:19:58.457Z,13
2022-12-23T13:24:54.383Z,13
2022-12-23T13:30:00.811Z,13
2022-12-23T13:34:55.741Z,14.4
2022-12-23T13:39:54.352Z,14.4
2022-12-23T13:44:54.163Z,14.4
2022-12-23T13:49:54.178Z,14.4
2022-12-23T13:54:54.534Z,14.3
2022-12-23T13:59:54.430Z,14
2022-12-23T14:04:54.080Z,12.9
2022-12-23T14:09:55.152Z,12.9
2022-12-23T14:14:54.016Z,12.9
2022-12-23T14:19:54.129Z,12.9
2022-12-23T14:29:55.619Z,14.7
2022-12-23T14:34:54.287Z,14.7
2022-12-23T14:39:54.099Z,14.7
2022-12-23T14:44:54.117Z,14.7
2022-12-23T14:49:54.234Z,15.5
2022-12-23T14:55:28.247Z,14
2022-12-23T14:59:54.159Z,14
2022-12-23T15:04:54.093Z,14
2022-12-23T15:10:01.192Z,14.2
2022-12-23T15:14:54.247Z,14.5
2022-12-23T15:19:54.201Z,14.5
2022-12-23T15:24:54.073Z,14.5
2022-12-23T15:29:54.074Z,14.8
2022-12-23T15:34:54.102Z,17.6
2022-12-23T15:40:11.840Z,17.6
2022-12-23T15:44:54.160Z,17.6
2022-12-23T15:49:54.507Z,19.2
2022-12-23T15:54:54.121Z,19.2
2022-12-23T15:59:54.088Z,20.6
2022-12-23T16:04:54.079Z,19.9
2022-12-23T16:09:54.139Z,19.9
2022-12-23T16:14:54.263Z,22.7
2022-12-23T16:19:54.126Z,22.8
2022-12-23T16:24:54.678Z,26.1
2022-12-23T16:29:54.638Z,22.7
2022-12-23T16:34:54.459Z,21
2022-12-23T16:39:54.162Z,21
2022-12-23T16:44:54.085Z,21
2022-12-23T16:49:55.223Z,16.3
2022-12-23T16:54:54.261Z,16.3
2022-12-23T16:59:54.180Z,16.3
2022-12-23T17:04:54.128Z,16.3
2022-12-23T17:09:54.662Z,16.3
2022-12-23T17:14:54.121Z,16.3
2022-12-23T17:19:54.205Z,16.1
2022-12-23T17:24:54.245Z,16.1
2022-12-23T17:29:54.453Z,15.1
2022-12-23T17:34:54.116Z,15.1
2022-12-23T17:39:54.325Z,13.2
2022-12-23T17:44:54.130Z,12.2
2022-12-23T17:49:54.370Z,11.9
2022-12-23T17:54:54.251Z,10.8
2022-12-23T17:59:54.175Z,8.8
2022-12-23T18:04:54.121Z,8.7
2022-12-23T18:09:54.192Z,8.7
2022-12-23T18:14:54.136Z,8.5
2022-12-23T18:19:54.144Z,8.2
2022-12-23T18:25:00.386Z,8.2
2022-12-23T18:29:54.165Z,8.2
2022-12-23T18:34:54.133Z,8.2
2022-12-23T18:39:54.283Z,8.2
2022-12-23T18:44:54.208Z,8.2
2022-12-23T18:49:54.258Z,8.2
2022-12-23T18:54:54.221Z,8
2022-12-23T18:59:54.279Z,8
2022-12-23T19:04:54.171Z,7.9
2022-12-23T19:09:54.228Z,8
2022-12-23T19:14:54.125Z,8
2022-12-23T19:19:54.183Z,8
2022-12-23T19:25:05.639Z,8
2022-12-23T19:29:54.282Z,8
2022-12-23T19:34:54.186Z,8
2022-12-23T19:39:54.288Z,8.1
2022-12-23T19:44:54.420Z,8.1
2022-12-23T19:49:54.506Z,8
2022-12-23T19:54:55.700Z,8
2022-12-23T19:59:54.146Z,7.9
2022-12-23T20:04:54.445Z,7.8
2022-12-23T20:09:54.239Z,7.8
2022-12-23T20:14:55.653Z,7.8
2022-12-23T20:19:54.354Z,7.8
2022-12-23T20:24:54.304Z,7.8
2022-12-23T20:29:54.399Z,7.8
2022-12-23T20:34:54.313Z,7.8
2022-12-23T20:39:54.294Z,7.8
2022-12-23T20:44:54.589Z,7.9
2022-12-23T20:49:55.338Z,7.9
2022-12-23T20:54:54.351Z,7.9
2022-12-23T20:59:54.482Z,7.9
2022-12-23T21:04:54.192Z,7.9
2022-12-23T21:09:54.470Z,7.9
2022-12-23T21:14:54.221Z,7.9
2022-12-23T21:19:54.215Z,7.9
2022-12-23T21:24:54.325Z,7.9
2022-12-23T21:29:54.594Z,7.9
2022-12-23T21:34:54.273Z,7.9
2022-12-23T21:39:54.345Z,7.9
2022-12-23T21:44:54.858Z,8.5
2022-12-23T21:49:54.460Z,8.5
2022-12-23T21:54:54.273Z,8.5
2022-12-23T21:59:54.934Z,8.5
2022-12-23T22:04:54.262Z,8
2022-12-23T22:09:54.298Z,7.8
2022-12-23T22:14:54.876Z,7.8
2022-12-23T22:19:54.349Z,7.8
2022-12-23T22:24:54.586Z,8
2022-12-23T22:29:54.567Z,8
2022-12-23T22:34:57.051Z,8
2022-12-23T22:39:58.341Z,7.8
2022-12-23T22:44:54.583Z,7.6
2022-12-23T22:49:54.547Z,7.6
2022-12-23T22:54:54.589Z,7.6
2022-12-23T22:59:54.387Z,7.6
2022-12-23T23:04:54.487Z,7.6
2022-12-23T23:09:54.770Z,7.7
2022-12-23T23:14:56.578Z,7.7
2022-12-23T23:19:54.415Z,7.7
2022-12-23T23:24:54.629Z,7.7
2022-12-23T23:29:54.408Z,7.7
2022-12-23T23:34:54.429Z,7.7
2022-12-23T23:39:54.778Z,7.7
2022-12-23T23:44:54.479Z,7.7
2022-12-23T23:49:54.480Z,7.7
2022-12-23T23:56:00.148Z,7.7
2022-12-23T23:59:54.573Z,7.8
